Crystal Bay, Minnesota
Current Conditions -  °F | °C
As of 12:53 PM on Friday 31 Oct 2014 (Local Time) from KFCM Reporting Station
Clear Clear  
Wind Chill: 30°   Ceiling: Unl
Heat Index: 37°   Visibility: 10mi
Dew Point: 18°   Wind: 9mph
Humidity: 46%   Direction: 40°NE
Pressure: 30.54"   Gusts: NA
Location:  44.95°N, 93.58°W
Report Text: KFCM 311753Z 04008KT 10SM CLR 03/M08 A3054 RMK AO2 SLP354 T00281078 10028 21033 50004
Loading
Personal Weather Stations






























Interactive Weather Map
Tropical Storm Tracking
New forecast layout! Learn more

10-Day Weather Forecast

Advertisements
Track Severe Weather on mobile